Time;durP1;ratioP1;P1;durP2;ratioP2;P2;SDS_P1;SDS_P2;PMS_P1;PMS_P2;Temp;Humidity;BMP_temperature;BMP_pressure;BME280_temperature;BME280_humidity;BME280_pressure;Samples;Min_cycle;Max_cycle;Signal;HPM_P1;HPM_P2
2024/01/27 00:00:21;;;;;;;22.63;3.58;;;;;;;;;;5135921;27;20398;-77
2024/01/27 00:02:47;;;;;;;27.20;3.25;;;;;;;;;;5135364;27;20050;-78
2024/01/27 00:05:13;;;;;;;26.13;3.58;;;;;;;;;;5117370;27;20043;-78
2024/01/27 00:07:40;;;;;;;20.92;2.92;;;;;;;;;;5136028;27;20058;-77
2024/01/27 00:10:06;;;;;;;20.05;2.97;;;;;;;;;;5117560;27;20399;-78
2024/01/27 00:12:32;;;;;;;20.15;3.17;;;;;;;;;;5135673;27;20058;-77
2024/01/27 00:14:58;;;;;;;19.85;3.35;;;;;;;;;;5117528;27;20399;-77
2024/01/27 00:17:26;;;;;;;18.77;3.10;;;;;;;;;;5135507;27;20050;-77
2024/01/27 00:19:52;;;;;;;28.27;4.03;;;;;;;;;;5100116;27;20047;-78
2024/01/27 00:22:20;;;;;;;22.05;3.60;;;;;;;;;;5135297;27;20126;-78
2024/01/27 00:24:46;;;;;;;31.13;4.35;;;;;;;;;;5117114;27;20049;-77
2024/01/27 00:27:12;;;;;;;28.05;4.55;;;;;;;;;;5135339;27;20458;-77
2024/01/27 00:29:38;;;;;;;24.17;4.45;;;;;;;;;;5116876;27;20068;-78
2024/01/27 00:32:05;;;;;;;22.63;3.67;;;;;;;;;;5116749;27;20076;-78
2024/01/27 00:34:31;;;;;;;19.02;3.40;;;;;;;;;;5099420;27;20394;-78
2024/01/27 00:36:57;;;;;;;22.13;3.35;;;;;;;;;;5117697;27;20114;-77
2024/01/27 00:39:23;;;;;;;16.52;2.78;;;;;;;;;;5116955;27;20053;-77
2024/01/27 00:41:49;;;;;;;20.45;3.50;;;;;;;;;;5116689;27;20088;-78
2024/01/27 00:44:15;;;;;;;22.55;3.55;;;;;;;;;;5135014;27;20459;-77
2024/01/27 00:46:42;;;;;;;17.77;3.30;;;;;;;;;;5135020;27;20047;-78
2024/01/27 00:49:08;;;;;;;21.50;3.30;;;;;;;;;;5116621;27;20043;-77
2024/01/27 00:51:34;;;;;;;18.20;2.88;;;;;;;;;;5099620;27;20046;-77
2024/01/27 00:54:00;;;;;;;22.25;3.15;;;;;;;;;;5116820;27;20475;-77
2024/01/27 00:56:26;;;;;;;22.13;4.05;;;;;;;;;;5099944;27;20606;-77
2024/01/27 00:58:52;;;;;;;18.35;2.90;;;;;;;;;;5117018;27;20383;-77
2024/01/27 01:01:18;;;;;;;20.33;3.50;;;;;;;;;;5135378;27;20058;-78
2024/01/27 01:03:45;;;;;;;20.05;3.25;;;;;;;;;;5116706;27;20047;-76
2024/01/27 01:06:11;;;;;;;21.50;4.00;;;;;;;;;;5134537;27;20096;-79
2024/01/27 01:08:37;;;;;;;19.73;2.95;;;;;;;;;;5116680;28;20170;-77
2024/01/27 01:11:04;;;;;;;22.00;3.72;;;;;;;;;;5099650;27;20047;-79
2024/01/27 01:13:30;;;;;;;19.38;3.30;;;;;;;;;;5116633;28;20122;-79
2024/01/27 01:15:56;;;;;;;22.45;3.72;;;;;;;;;;5116453;28;20047;-79
2024/01/27 01:18:22;;;;;;;21.65;3.53;;;;;;;;;;5116531;28;20075;-79
2024/01/27 01:20:48;;;;;;;20.00;3.60;;;;;;;;;;5116523;28;20364;-77
2024/01/27 01:23:14;;;;;;;19.42;3.28;;;;;;;;;;5116454;28;20074;-79
2024/01/27 01:25:41;;;;;;;14.20;3.03;;;;;;;;;;5115997;28;20134;-80
2024/01/27 01:28:07;;;;;;;17.25;3.08;;;;;;;;;;5134574;28;20510;-79
2024/01/27 01:30:33;;;;;;;12.90;2.58;;;;;;;;;;5115461;28;20047;-80
2024/01/27 01:32:59;;;;;;;17.30;3.35;;;;;;;;;;5133105;28;20099;-80
2024/01/27 01:35:25;;;;;;;17.73;3.10;;;;;;;;;;5098862;28;20474;-79
2024/01/27 01:37:51;;;;;;;19.50;3.13;;;;;;;;;;5116527;28;20054;-79
2024/01/27 01:40:17;;;;;;;21.38;3.10;;;;;;;;;;5116501;28;20047;-78
2024/01/27 01:42:44;;;;;;;21.08;3.50;;;;;;;;;;5134235;28;20058;-79
2024/01/27 01:45:12;;;;;;;24.38;2.92;;;;;;;;;;5134413;28;20055;-79
2024/01/27 01:47:38;;;;;;;14.77;2.95;;;;;;;;;;5134431;28;20051;-79
2024/01/27 01:50:06;;;;;;;11.82;2.38;;;;;;;;;;5116377;28;20054;-79
2024/01/27 01:52:32;;;;;;;20.98;3.17;;;;;;;;;;5134229;28;20097;-79
2024/01/27 01:54:58;;;;;;;19.55;3.63;;;;;;;;;;5118202;27;20047;-79
2024/01/27 01:57:24;;;;;;;12.55;2.90;;;;;;;;;;5120602;27;20050;-79
2024/01/27 01:59:50;;;;;;;19.70;2.47;;;;;;;;;;5137835;27;20039;-78
2024/01/27 02:02:16;;;;;;;19.92;2.60;;;;;;;;;;5138290;27;20130;-78
2024/01/27 02:04:44;;;;;;;24.10;4.18;;;;;;;;;;5119411;27;20101;-79
2024/01/27 02:07:10;;;;;;;18.38;4.35;;;;;;;;;;5119865;27;20051;-79
2024/01/27 02:09:36;;;;;;;21.90;3.72;;;;;;;;;;5138070;27;20047;-79
2024/01/27 02:12:02;;;;;;;20.42;3.38;;;;;;;;;;5119728;27;20047;-79
2024/01/27 02:14:28;;;;;;;23.30;3.22;;;;;;;;;;5138096;27;20035;-79
2024/01/27 02:16:54;;;;;;;17.35;4.00;;;;;;;;;;5137730;27;20475;-79
2024/01/27 02:19:21;;;;;;;16.48;2.15;;;;;;;;;;5137920;27;20042;-79
2024/01/27 02:21:47;;;;;;;22.25;2.83;;;;;;;;;;5137878;27;20043;-79
2024/01/27 02:24:13;;;;;;;13.02;2.85;;;;;;;;;;5102606;27;20104;-78
2024/01/27 02:26:39;;;;;;;21.08;2.80;;;;;;;;;;5119156;27;20055;-79
2024/01/27 02:29:05;;;;;;;20.67;3.45;;;;;;;;;;5137693;27;20058;-79
2024/01/27 02:31:31;;;;;;;16.55;2.70;;;;;;;;;;5137687;27;20082;-79
2024/01/27 02:33:57;;;;;;;19.30;3.35;;;;;;;;;;5137189;27;20126;-79
2024/01/27 02:36:23;;;;;;;22.77;3.65;;;;;;;;;;5137655;27;20046;-77
2024/01/27 02:38:49;;;;;;;14.80;3.22;;;;;;;;;;5137530;27;20070;-79
2024/01/27 02:41:15;;;;;;;17.25;3.88;;;;;;;;;;5119294;27;20474;-79
2024/01/27 02:43:41;;;;;;;21.27;3.33;;;;;;;;;;5102437;27;20046;-79
2024/01/27 02:46:09;;;;;;;12.93;2.03;;;;;;;;;;5137490;27;20050;-79
2024/01/27 02:48:35;;;;;;;17.15;2.60;;;;;;;;;;5137647;27;20469;-79
2024/01/27 02:51:05;;;;;;;18.50;3.30;;;;;;;;;;5119425;27;20506;-79
2024/01/27 02:53:31;;;;;;;23.50;2.90;;;;;;;;;;5136842;27;20495;-80
2024/01/27 02:55:57;;;;;;;18.27;3.20;;;;;;;;;;5119661;27;20048;-79
2024/01/27 02:58:23;;;;;;;21.20;3.28;;;;;;;;;;5119150;27;20097;-79
2024/01/27 03:00:49;;;;;;;16.92;2.67;;;;;;;;;;5137197;27;20110;-79
2024/01/27 03:03:15;;;;;;;17.20;2.95;;;;;;;;;;5136455;27;20135;-80
2024/01/27 03:05:41;;;;;;;15.43;2.97;;;;;;;;;;5117448;27;20039;-79
2024/01/27 03:08:07;;;;;;;16.10;3.47;;;;;;;;;;5137005;27;20046;-80
2024/01/27 03:10:33;;;;;;;19.95;3.13;;;;;;;;;;5136955;27;20130;-80
2024/01/27 03:13:00;;;;;;;13.95;3.47;;;;;;;;;;5136845;27;20043;-80
2024/01/27 03:15:26;;;;;;;16.13;2.97;;;;;;;;;;5119045;27;20046;-79
2024/01/27 03:17:52;;;;;;;19.13;3.05;;;;;;;;;;5136781;27;20043;-79
2024/01/27 03:20:18;;;;;;;21.30;2.33;;;;;;;;;;5136611;27;20053;-79
2024/01/27 03:22:44;;;;;;;22.88;4.07;;;;;;;;;;5101595;27;20054;-80
2024/01/27 03:25:11;;;;;;;18.35;3.10;;;;;;;;;;5137266;27;20039;-79
2024/01/27 03:27:37;;;;;;;20.33;3.00;;;;;;;;;;5118886;27;20039;-79
2024/01/27 03:30:03;;;;;;;16.35;2.60;;;;;;;;;;5118304;27;20471;-80
2024/01/27 03:32:33;;;;;;;18.98;2.95;;;;;;;;;;5118875;27;20429;-79
2024/01/27 03:34:59;;;;;;;19.60;3.03;;;;;;;;;;5136071;27;20151;-80
2024/01/27 03:37:25;;;;;;;19.08;2.92;;;;;;;;;;5136273;27;20047;-79
2024/01/27 03:39:51;;;;;;;23.38;3.22;;;;;;;;;;5118173;27;20082;-79
2024/01/27 03:42:17;;;;;;;11.77;2.75;;;;;;;;;;5118179;27;20047;-79
2024/01/27 03:44:44;;;;;;;18.23;3.08;;;;;;;;;;5118277;27;20434;-80
2024/01/27 03:47:10;;;;;;;20.25;3.20;;;;;;;;;;5117978;27;20497;-77
2024/01/27 03:49:36;;;;;;;17.45;2.58;;;;;;;;;;5117820;27;20046;-79
2024/01/27 03:52:02;;;;;;;16.65;2.28;;;;;;;;;;5084048;27;20129;-79
2024/01/27 03:54:28;;;;;;;12.57;2.88;;;;;;;;;;5118030;27;20104;-80
2024/01/27 03:56:55;;;;;;;23.63;2.92;;;;;;;;;;5117942;27;20058;-79
2024/01/27 03:59:21;;;;;;;17.38;2.70;;;;;;;;;;5136105;27;20145;-79
2024/01/27 04:01:47;;;;;;;19.13;3.28;;;;;;;;;;5135799;27;20058;-79
2024/01/27 04:04:14;;;;;;;14.88;2.88;;;;;;;;;;5117284;27;20566;-80
2024/01/27 04:06:40;;;;;;;20.42;3.15;;;;;;;;;;5117648;27;20044;-79
2024/01/27 04:09:10;;;;;;;20.65;2.50;;;;;;;;;;5117598;27;20051;-79
2024/01/27 04:11:36;;;;;;;17.17;2.60;;;;;;;;;;5117327;27;20051;-79
2024/01/27 04:14:04;;;;;;;20.65;2.65;;;;;;;;;;5135495;27;20129;-79
2024/01/27 04:16:30;;;;;;;20.50;2.95;;;;;;;;;;5135445;27;20096;-79
2024/01/27 04:18:56;;;;;;;17.73;2.80;;;;;;;;;;5135495;27;20134;-79
2024/01/27 04:21:22;;;;;;;22.90;2.72;;;;;;;;;;5117447;27;20047;-79
2024/01/27 04:23:49;;;;;;;18.58;2.72;;;;;;;;;;5135508;27;20092;-79
2024/01/27 04:26:15;;;;;;;17.50;2.78;;;;;;;;;;5117322;27;20047;-80
2024/01/27 04:28:41;;;;;;;17.88;2.45;;;;;;;;;;5135433;27;20137;-77
2024/01/27 04:31:07;;;;;;;15.18;2.50;;;;;;;;;;5135256;27;20046;-77
2024/01/27 04:33:33;;;;;;;17.20;2.72;;;;;;;;;;5116684;27;20079;-77
2024/01/27 04:35:59;;;;;;;18.70;2.78;;;;;;;;;;5117248;27;20093;-79
2024/01/27 04:38:25;;;;;;;17.83;2.97;;;;;;;;;;5135252;27;20048;-79
2024/01/27 04:40:52;;;;;;;14.32;2.58;;;;;;;;;;5100289;27;20502;-77
2024/01/27 04:43:22;;;;;;;25.83;4.22;;;;;;;;;;5116998;27;20046;-77
2024/01/27 04:45:49;;;;;;;15.35;2.42;;;;;;;;;;5135245;27;20035;-77
2024/01/27 04:48:15;;;;;;;16.75;2.42;;;;;;;;;;5135686;27;20414;-77
2024/01/27 04:50:41;;;;;;;18.35;2.83;;;;;;;;;;5116757;27;20082;-77
2024/01/27 04:53:07;;;;;;;17.73;2.45;;;;;;;;;;5135118;27;20046;-77
2024/01/27 04:55:33;;;;;;;19.48;3.20;;;;;;;;;;5116796;27;20047;-77
2024/01/27 04:58:00;;;;;;;19.67;2.80;;;;;;;;;;5134857;27;20540;-77
2024/01/27 05:00:29;;;;;;;18.88;2.67;;;;;;;;;;5134476;27;20058;-77
2024/01/27 05:02:55;;;;;;;26.85;3.50;;;;;;;;;;5116671;27;20539;-77
2024/01/27 05:05:21;;;;;;;17.98;2.28;;;;;;;;;;5115897;27;20482;-77
2024/01/27 05:07:48;;;;;;;19.10;2.60;;;;;;;;;;5116558;28;20051;-77
2024/01/27 05:10:15;;;;;;;18.80;3.55;;;;;;;;;;5134711;27;20047;-77
2024/01/27 05:12:41;;;;;;;19.13;3.25;;;;;;;;;;5117198;28;20046;-77
2024/01/27 05:15:08;;;;;;;23.83;3.40;;;;;;;;;;5134664;27;20041;-77
2024/01/27 05:17:34;;;;;;;15.80;3.15;;;;;;;;;;5116649;28;20040;-77
2024/01/27 05:20:03;;;;;;;15.27;3.15;;;;;;;;;;5134616;28;20076;-78
2024/01/27 05:22:30;;;;;;;18.30;3.70;;;;;;;;;;5116488;28;20126;-78
2024/01/27 05:24:56;;;;;;;20.10;3.78;;;;;;;;;;5116341;28;20391;-78
2024/01/27 05:27:22;;;;;;;18.20;3.75;;;;;;;;;;5116304;28;20050;-78
2024/01/27 05:29:48;;;;;;;19.17;3.13;;;;;;;;;;5136597;27;20043;-78
2024/01/27 05:32:14;;;;;;;14.15;2.88;;;;;;;;;;5137788;27;20047;-79
2024/01/27 05:34:40;;;;;;;18.13;3.53;;;;;;;;;;5138297;27;20046;-79
2024/01/27 05:37:06;;;;;;;19.77;3.38;;;;;;;;;;5120342;27;20054;-78
2024/01/27 05:39:33;;;;;;;20.17;3.97;;;;;;;;;;5120490;27;20054;-78
2024/01/27 05:41:59;;;;;;;13.85;4.20;;;;;;;;;;5121049;27;20126;-79
2024/01/27 05:44:25;;;;;;;24.83;4.28;;;;;;;;;;5120355;27;20039;-78
2024/01/27 05:46:52;;;;;;;18.77;4.18;;;;;;;;;;5138502;27;20082;-78
2024/01/27 05:49:18;;;;;;;20.92;4.05;;;;;;;;;;5138485;27;20049;-78
2024/01/27 05:51:44;;;;;;;22.85;4.03;;;;;;;;;;5103321;27;20047;-78
2024/01/27 05:54:13;;;;;;;16.00;3.75;;;;;;;;;;5120292;27;20047;-78
2024/01/27 05:56:39;;;;;;;17.50;3.60;;;;;;;;;;5120267;27;20065;-78
2024/01/27 05:59:05;;;;;;;18.98;3.78;;;;;;;;;;5103270;27;20135;-78
2024/01/27 06:01:31;;;;;;;19.85;4.55;;;;;;;;;;5138429;27;20475;-78
2024/01/27 06:03:58;;;;;;;17.00;4.57;;;;;;;;;;5137706;27;20191;-79
2024/01/27 06:06:24;;;;;;;14.75;5.13;;;;;;;;;;5119770;27;20402;-78
2024/01/27 06:08:50;;;;;;;25.95;5.85;;;;;;;;;;5138112;27;20163;-78
2024/01/27 06:11:23;;;;;;;13.00;4.40;;;;;;;;;;5138088;27;20047;-78
2024/01/27 06:13:49;;;;;;;14.82;3.97;;;;;;;;;;5120017;27;20087;-78
2024/01/27 06:16:16;;;;;;;20.02;5.15;;;;;;;;;;5118501;27;20050;-79
2024/01/27 06:18:42;;;;;;;18.73;5.18;;;;;;;;;;5099384;28;20092;-78
2024/01/27 06:21:08;;;;;;;21.20;6.30;;;;;;;;;;5117611;28;20395;-78
2024/01/27 06:23:35;;;;;;;20.10;5.35;;;;;;;;;;5099321;28;20055;-78
2024/01/27 06:26:05;;;;;;;25.77;6.40;;;;;;;;;;5117141;28;20368;-78
2024/01/27 06:28:31;;;;;;;24.88;6.55;;;;;;;;;;5117162;28;20044;-78
2024/01/27 06:30:57;;;;;;;25.50;7.18;;;;;;;;;;5099479;28;20075;-78
2024/01/27 06:33:24;;;;;;;27.13;7.40;;;;;;;;;;5098657;28;20047;-78
2024/01/27 06:35:50;;;;;;;18.83;6.60;;;;;;;;;;5098867;28;20376;-78
2024/01/27 06:38:16;;;;;;;17.58;7.05;;;;;;;;;;5117233;28;20075;-78
2024/01/27 06:40:42;;;;;;;27.17;7.22;;;;;;;;;;5099111;28;20120;-78
2024/01/27 06:43:08;;;;;;;24.08;6.43;;;;;;;;;;5099187;28;20044;-78
2024/01/27 06:45:34;;;;;;;14.18;6.97;;;;;;;;;;5098669;28;20079;-78
2024/01/27 06:48:00;;;;;;;22.05;7.20;;;;;;;;;;5117358;28;20047;-78
2024/01/27 06:50:26;;;;;;;20.85;6.60;;;;;;;;;;5098772;28;20086;-78
2024/01/27 06:52:52;;;;;;;23.83;7.78;;;;;;;;;;5117031;28;20047;-78
2024/01/27 06:55:18;;;;;;;27.27;8.13;;;;;;;;;;5098691;28;20114;-78
2024/01/27 06:57:44;;;;;;;22.80;8.88;;;;;;;;;;5098168;28;20126;-79
2024/01/27 07:00:14;;;;;;;26.83;8.45;;;;;;;;;;5116523;28;20059;-78
2024/01/27 07:02:41;;;;;;;29.45;8.60;;;;;;;;;;5116521;28;20047;-78
2024/01/27 07:05:08;;;;;;;27.77;9.10;;;;;;;;;;5098057;28;20116;-78
2024/01/27 07:07:34;;;;;;;21.77;9.13;;;;;;;;;;5098233;28;20097;-78
2024/01/27 07:10:00;;;;;;;28.23;8.65;;;;;;;;;;5116354;28;20043;-78
2024/01/27 07:12:26;;;;;;;22.35;9.25;;;;;;;;;;5098213;28;20130;-78
2024/01/27 07:14:54;;;;;;;26.27;8.95;;;;;;;;;;5097781;28;20052;-80
2024/01/27 07:17:20;;;;;;;21.42;8.48;;;;;;;;;;5097727;27;20077;-81
2024/01/27 07:19:46;;;;;;;24.85;7.88;;;;;;;;;;5098189;28;20107;-80
2024/01/27 07:22:12;;;;;;;22.65;7.40;;;;;;;;;;5098130;28;20055;-80
2024/01/27 07:24:39;;;;;;;28.30;9.32;;;;;;;;;;5097867;28;20043;-80
2024/01/27 07:27:05;;;;;;;18.90;7.95;;;;;;;;;;5081166;28;20039;-82
2024/01/27 07:29:31;;;;;;;25.42;8.10;;;;;;;;;;5097977;28;20086;-82
2024/01/27 07:31:57;;;;;;;18.33;8.43;;;;;;;;;;5064451;28;20043;-82
2024/01/27 07:34:23;;;;;;;27.77;8.95;;;;;;;;;;5064126;28;20040;-80
2024/01/27 07:36:49;;;;;;;28.90;8.95;;;;;;;;;;5081097;28;20054;-84
2024/01/27 07:39:16;;;;;;;22.42;8.02;;;;;;;;;;5097902;28;20052;-82
2024/01/27 07:41:42;;;;;;;19.58;7.28;;;;;;;;;;5080898;28;20476;-80
2024/01/27 07:44:12;;;;;;;18.55;7.25;;;;;;;;;;5097434;28;20546;-82
2024/01/27 07:46:38;;;;;;;20.60;7.70;;;;;;;;;;5097445;28;20047;-81
2024/01/27 07:49:06;;;;;;;24.88;8.30;;;;;;;;;;5080798;28;20087;-79
2024/01/27 07:51:32;;;;;;;24.50;7.80;;;;;;;;;;5097307;28;20047;-79
2024/01/27 07:53:59;;;;;;;22.73;7.70;;;;;;;;;;5097517;28;20061;-79
2024/01/27 07:56:25;;;;;;;28.50;9.30;;;;;;;;;;5097472;28;20493;-84
2024/01/27 07:58:51;;;;;;;20.00;7.65;;;;;;;;;;5080587;28;20479;-80
2024/01/27 08:01:18;;;;;;;19.30;7.75;;;;;;;;;;5080672;28;20477;-82
2024/01/27 08:03:44;;;;;;;21.20;8.02;;;;;;;;;;5072840;28;20504;-81
2024/01/27 08:06:17;;;;;;;22.25;7.95;;;;;;;;;;5073417;28;20044;-81
2024/01/27 08:08:47;;;;;;;20.98;7.65;;;;;;;;;;5056680;28;20524;-82
2024/01/27 08:11:17;;;;;;;18.45;7.50;;;;;;;;;;5067969;28;20048;-80
2024/01/27 08:13:43;;;;;;;18.98;7.07;;;;;;;;;;5093143;28;20044;-80
2024/01/27 08:16:12;;;;;;;22.35;8.40;;;;;;;;;;5093105;28;20056;-79
2024/01/27 08:18:39;;;;;;;20.85;7.28;;;;;;;;;;5090053;28;20055;-81
2024/01/27 08:21:05;;;;;;;19.08;7.43;;;;;;;;;;5090580;28;20096;-80
2024/01/27 08:23:31;;;;;;;21.40;7.95;;;;;;;;;;5075760;28;20040;-80
2024/01/27 08:25:57;;;;;;;16.98;7.00;;;;;;;;;;5092695;28;20052;-80
2024/01/27 08:28:23;;;;;;;25.25;7.72;;;;;;;;;;5092816;28;20119;-80
2024/01/27 08:30:50;;;;;;;22.25;7.97;;;;;;;;;;5092600;28;20051;-80
2024/01/27 08:33:16;;;;;;;15.75;6.82;;;;;;;;;;5092730;28;20081;-80
2024/01/27 08:35:42;;;;;;;17.20;7.38;;;;;;;;;;5092013;28;20384;-81
2024/01/27 08:38:09;;;;;;;18.15;7.38;;;;;;;;;;5093631;28;20123;-83
2024/01/27 08:40:36;;;;;;;14.88;6.40;;;;;;;;;;5092478;28;20048;-79
2024/01/27 08:43:02;;;;;;;21.13;7.57;;;;;;;;;;5092701;28;20125;-79
2024/01/27 08:45:28;;;;;;;15.43;6.07;;;;;;;;;;5090558;28;20040;-79
2024/01/27 08:47:54;;;;;;;16.95;7.18;;;;;;;;;;5094687;28;20044;-79
2024/01/27 08:50:21;;;;;;;15.98;6.85;;;;;;;;;;5076459;28;20135;-79
2024/01/27 08:52:48;;;;;;;18.27;6.30;;;;;;;;;;5093084;28;20043;-79
2024/01/27 08:55:16;;;;;;;15.98;6.43;;;;;;;;;;5093997;28;20066;-80
2024/01/27 08:57:42;;;;;;;21.33;7.07;;;;;;;;;;5093330;28;20040;-79
2024/01/27 09:00:09;;;;;;;19.98;6.78;;;;;;;;;;5099358;27;20104;-80
2024/01/27 09:02:35;;;;;;;17.40;6.60;;;;;;;;;;5116572;27;20051;-79
2024/01/27 09:05:01;;;;;;;16.70;6.00;;;;;;;;;;5115365;27;20075;-80
2024/01/27 09:07:28;;;;;;;15.05;6.95;;;;;;;;;;5116690;27;20054;-79
2024/01/27 09:09:54;;;;;;;19.52;7.40;;;;;;;;;;5134738;27;20099;-80
2024/01/27 09:12:21;;;;;;;18.48;7.85;;;;;;;;;;5134415;27;20054;-79
2024/01/27 09:14:47;;;;;;;14.18;6.60;;;;;;;;;;5116564;27;20247;-79
2024/01/27 09:17:13;;;;;;;15.60;6.60;;;;;;;;;;5116643;28;20126;-79
2024/01/27 09:19:40;;;;;;;15.35;6.70;;;;;;;;;;5116289;28;20053;-79
2024/01/27 09:22:06;;;;;;;12.82;6.40;;;;;;;;;;5116446;28;20172;-79
2024/01/27 09:24:32;;;;;;;18.25;6.80;;;;;;;;;;5134139;28;20036;-79
2024/01/27 09:26:58;;;;;;;18.80;6.82;;;;;;;;;;5116178;28;20379;-79
2024/01/27 09:29:24;;;;;;;15.65;6.10;;;;;;;;;;5134271;28;20491;-78
2024/01/27 09:31:50;;;;;;;17.67;6.53;;;;;;;;;;5116669;28;20097;-81
2024/01/27 09:34:16;;;;;;;18.30;7.07;;;;;;;;;;5133763;28;20039;-79
2024/01/27 09:36:42;;;;;;;20.25;7.63;;;;;;;;;;5082717;28;20116;-79
2024/01/27 09:39:08;;;;;;;14.65;5.97;;;;;;;;;;5134512;28;20130;-79
2024/01/27 09:41:34;;;;;;;15.02;5.93;;;;;;;;;;5116323;28;20047;-80
2024/01/27 09:44:04;;;;;;;13.85;6.50;;;;;;;;;;5116435;28;20059;-79
2024/01/27 09:46:31;;;;;;;17.65;6.43;;;;;;;;;;5116603;28;20112;-79
2024/01/27 09:48:57;;;;;;;15.50;6.40;;;;;;;;;;5134628;28;20043;-80
2024/01/27 09:51:23;;;;;;;19.40;6.78;;;;;;;;;;5116288;28;20463;-79
2024/01/27 09:53:51;;;;;;;21.48;6.40;;;;;;;;;;5116788;28;20073;-79
2024/01/27 09:56:21;;;;;;;14.45;6.32;;;;;;;;;;5134539;28;20043;-79
2024/01/27 09:58:55;;;;;;;15.52;6.20;;;;;;;;;;5099320;28;20407;-79
2024/01/27 10:01:21;;;;;;;18.30;7.22;;;;;;;;;;5115528;28;20509;-79
2024/01/27 10:03:47;;;;;;;17.70;6.60;;;;;;;;;;5114272;28;20047;-79
2024/01/27 10:06:14;;;;;;;16.77;6.80;;;;;;;;;;5123770;27;20050;-79
2024/01/27 10:08:41;;;;;;;16.48;5.80;;;;;;;;;;5140477;27;20114;-79
2024/01/27 10:11:07;;;;;;;11.77;5.40;;;;;;;;;;5116481;27;20481;-79
2024/01/27 10:13:34;;;;;;;15.32;6.57;;;;;;;;;;5136601;27;20098;-79
2024/01/27 10:16:07;;;;;;;13.52;5.70;;;;;;;;;;5157110;27;20047;-79
2024/01/27 10:18:34;;;;;;;16.33;6.25;;;;;;;;;;5140653;27;20100;-79
2024/01/27 10:21:01;;;;;;;16.52;5.82;;;;;;;;;;5158678;27;20095;-79
2024/01/27 10:23:27;;;;;;;12.27;5.53;;;;;;;;;;5140405;27;20478;-79
2024/01/27 10:25:53;;;;;;;13.68;5.95;;;;;;;;;;5158543;27;20054;-79
2024/01/27 10:28:20;;;;;;;14.88;5.53;;;;;;;;;;5158554;27;20133;-79
2024/01/27 10:30:48;;;;;;;17.52;5.38;;;;;;;;;;5140531;27;20445;-79
2024/01/27 10:33:14;;;;;;;12.68;5.28;;;;;;;;;;5140223;27;20103;-79
2024/01/27 10:35:41;;;;;;;16.83;6.57;;;;;;;;;;5158316;27;20053;-79
2024/01/27 10:38:07;;;;;;;18.55;5.75;;;;;;;;;;5158379;27;20049;-79
2024/01/27 10:40:33;;;;;;;16.17;6.30;;;;;;;;;;5155229;27;20099;-79
2024/01/27 10:43:02;;;;;;;12.57;4.93;;;;;;;;;;5122035;27;20051;-79
2024/01/27 10:45:32;;;;;;;18.80;5.65;;;;;;;;;;5119111;27;20078;-80
2024/01/27 10:48:00;;;;;;;15.48;5.65;;;;;;;;;;5119418;27;20121;-79
2024/01/27 10:50:27;;;;;;;15.88;5.63;;;;;;;;;;5119257;27;20055;-79
2024/01/27 10:52:54;;;;;;;14.00;5.43;;;;;;;;;;5119188;27;20086;-79
2024/01/27 10:55:20;;;;;;;16.23;5.68;;;;;;;;;;5137279;27;20097;-79
2024/01/27 10:57:47;;;;;;;16.85;5.28;;;;;;;;;;5119524;27;20130;-79
2024/01/27 11:00:15;;;;;;;16.77;5.43;;;;;;;;;;5118483;27;20047;-79
2024/01/27 11:02:42;;;;;;;17.58;5.65;;;;;;;;;;5137110;27;20094;-79
2024/01/27 11:05:10;;;;;;;18.67;5.78;;;;;;;;;;5136601;27;20487;-80
2024/01/27 11:07:37;;;;;;;21.48;5.97;;;;;;;;;;5118853;27;20047;-80
2024/01/27 11:10:03;;;;;;;14.55;5.47;;;;;;;;;;5118993;27;20051;-79
2024/01/27 11:12:30;;;;;;;12.45;5.38;;;;;;;;;;5136914;27;20051;-80
2024/01/27 11:14:58;;;;;;;12.13;5.55;;;;;;;;;;5107142;27;20039;-79
2024/01/27 11:17:24;;;;;;;15.20;5.32;;;;;;;;;;5128550;27;20144;-80
2024/01/27 11:19:51;;;;;;;15.02;5.20;;;;;;;;;;5147584;27;20122;-80
2024/01/27 11:22:27;;;;;;;14.77;5.00;;;;;;;;;;5124681;27;20394;-80
2024/01/27 11:25:05;;;;;;;13.85;5.45;;;;;;;;;;5124806;27;20503;-80
2024/01/27 11:27:31;;;;;;;16.33;5.53;;;;;;;;;;5126368;27;20052;-79
2024/01/27 11:29:57;;;;;;;19.08;6.43;;;;;;;;;;5118236;27;20395;-80
2024/01/27 11:32:24;;;;;;;15.05;5.43;;;;;;;;;;5136494;27;20107;-78
2024/01/27 11:34:50;;;;;;;17.40;5.38;;;;;;;;;;5136053;27;20068;-80
2024/01/27 11:37:19;;;;;;;9.65;4.25;;;;;;;;;;5101295;27;20043;-79
2024/01/27 11:39:46;;;;;;;15.63;5.60;;;;;;;;;;5118396;27;20558;-79
2024/01/27 11:42:13;;;;;;;13.70;4.80;;;;;;;;;;5118272;27;20126;-80
2024/01/27 11:44:40;;;;;;;12.88;4.72;;;;;;;;;;5118629;27;20043;-79
2024/01/27 11:47:06;;;;;;;13.73;4.75;;;;;;;;;;5136296;27;20043;-80
2024/01/27 11:49:33;;;;;;;13.00;3.95;;;;;;;;;;5136437;27;20089;-80
2024/01/27 11:52:00;;;;;;;17.83;5.07;;;;;;;;;;5118245;27;20399;-80
2024/01/27 11:54:26;;;;;;;18.45;4.53;;;;;;;;;;5118348;27;20047;-79
2024/01/27 11:56:52;;;;;;;14.43;5.25;;;;;;;;;;5136076;27;20039;-79
2024/01/27 11:59:18;;;;;;;16.45;4.78;;;;;;;;;;5117714;27;20134;-80
2024/01/27 12:01:44;;;;;;;16.02;4.85;;;;;;;;;;5117634;27;20094;-80
2024/01/27 12:04:10;;;;;;;15.05;4.90;;;;;;;;;;5135513;27;20051;-79
2024/01/27 12:06:38;;;;;;;10.40;3.63;;;;;;;;;;5135833;27;20039;-79
2024/01/27 12:09:11;;;;;;;13.73;3.85;;;;;;;;;;5120423;27;20050;-80
2024/01/27 12:11:39;;;;;;;14.05;4.50;;;;;;;;;;5090185;27;20058;-80
2024/01/27 12:14:05;;;;;;;15.02;3.45;;;;;;;;;;5117349;27;20410;-80
2024/01/27 12:16:31;;;;;;;13.10;4.38;;;;;;;;;;5135707;27;20043;-79
2024/01/27 12:18:57;;;;;;;15.60;4.13;;;;;;;;;;5135615;27;20084;-80
2024/01/27 12:21:24;;;;;;;17.55;4.65;;;;;;;;;;5117506;27;20457;-79
2024/01/27 12:23:53;;;;;;;14.48;4.30;;;;;;;;;;5135567;27;20099;-80
2024/01/27 12:26:26;;;;;;;12.50;4.28;;;;;;;;;;5117158;27;20051;-79
2024/01/27 12:28:52;;;;;;;13.15;4.20;;;;;;;;;;5135409;27;20134;-80
2024/01/27 12:31:19;;;;;;;17.65;4.22;;;;;;;;;;5117550;27;20053;-80
2024/01/27 12:33:49;;;;;;;12.70;3.97;;;;;;;;;;5116965;27;20043;-80
2024/01/27 12:36:15;;;;;;;12.07;3.97;;;;;;;;;;5117902;27;20096;-80
2024/01/27 12:38:41;;;;;;;15.77;3.72;;;;;;;;;;5137643;27;20133;-80
2024/01/27 12:41:07;;;;;;;10.80;3.75;;;;;;;;;;5155708;27;20046;-80
2024/01/27 12:43:33;;;;;;;13.77;3.38;;;;;;;;;;5155963;27;20179;-80
2024/01/27 12:45:59;;;;;;;16.60;3.90;;;;;;;;;;5155583;27;20393;-80
2024/01/27 12:48:26;;;;;;;12.20;3.65;;;;;;;;;;5155905;27;20042;-80
2024/01/27 12:50:52;;;;;;;13.32;3.42;;;;;;;;;;5137615;27;20038;-80
2024/01/27 12:53:18;;;;;;;12.95;3.90;;;;;;;;;;5155845;27;20122;-80
2024/01/27 12:55:45;;;;;;;13.70;3.70;;;;;;;;;;5155774;27;20047;-80
2024/01/27 12:58:11;;;;;;;11.82;3.60;;;;;;;;;;5155728;27;20134;-80
2024/01/27 13:00:38;;;;;;;19.05;4.13;;;;;;;;;;5133748;27;20146;-80
2024/01/27 13:03:04;;;;;;;12.88;3.67;;;;;;;;;;5134058;27;20104;-80
2024/01/27 13:05:30;;;;;;;13.88;3.03;;;;;;;;;;5133306;27;20070;-80
2024/01/27 13:07:56;;;;;;;14.25;3.00;;;;;;;;;;5133852;27;20093;-79
2024/01/27 13:10:22;;;;;;;15.82;3.50;;;;;;;;;;5134839;27;20047;-81
2024/01/27 13:12:48;;;;;;;11.02;3.22;;;;;;;;;;5134065;27;20075;-82
2024/01/27 13:15:14;;;;;;;14.05;3.38;;;;;;;;;;5134862;27;20086;-80
2024/01/27 13:17:41;;;;;;;11.45;2.58;;;;;;;;;;5133763;27;20064;-80
2024/01/27 13:20:08;;;;;;;10.25;2.58;;;;;;;;;;5133785;28;20047;-80
2024/01/27 13:22:34;;;;;;;14.25;3.20;;;;;;;;;;5133806;28;20039;-81
2024/01/27 13:25:01;;;;;;;9.20;2.83;;;;;;;;;;5133518;28;20039;-81
2024/01/27 13:27:27;;;;;;;11.90;2.58;;;;;;;;;;5133658;28;20467;-80
2024/01/27 13:29:53;;;;;;;11.40;2.22;;;;;;;;;;5116531;28;20104;-80
2024/01/27 13:32:19;;;;;;;10.40;2.35;;;;;;;;;;5133684;28;20073;-80
2024/01/27 13:34:47;;;;;;;9.90;2.28;;;;;;;;;;5134047;28;20039;-80
2024/01/27 13:37:15;;;;;;;8.77;1.98;;;;;;;;;;5134821;28;20410;-80
2024/01/27 13:39:42;;;;;;;7.88;2.00;;;;;;;;;;5125306;28;20129;-79
2024/01/27 13:42:08;;;;;;;7.13;2.03;;;;;;;;;;5123361;28;20092;-79
2024/01/27 13:44:35;;;;;;;9.10;1.15;;;;;;;;;;5123989;28;20039;-79
2024/01/27 13:47:04;;;;;;;9.52;2.03;;;;;;;;;;5122575;28;20047;-79
2024/01/27 13:49:30;;;;;;;9.65;2.08;;;;;;;;;;5124027;27;20043;-78
2024/01/27 13:51:56;;;;;;;14.13;2.25;;;;;;;;;;5127266;27;20066;-77
2024/01/27 13:54:23;;;;;;;10.00;1.88;;;;;;;;;;5125622;27;20036;-80
2024/01/27 13:56:49;;;;;;;9.80;1.98;;;;;;;;;;5127991;27;20050;-79
2024/01/27 13:59:15;;;;;;;7.13;1.55;;;;;;;;;;5110516;27;20051;-79
2024/01/27 14:01:41;;;;;;;13.45;2.55;;;;;;;;;;5143464;27;20134;-79
2024/01/27 14:04:08;;;;;;;15.00;2.25;;;;;;;;;;5127293;27;20474;-79
2024/01/27 14:06:34;;;;;;;10.60;2.97;;;;;;;;;;5149287;27;20122;-79
2024/01/27 14:09:01;;;;;;;10.85;2.95;;;;;;;;;;5111769;27;20505;-79
2024/01/27 14:11:28;;;;;;;9.50;2.63;;;;;;;;;;5147803;27;20042;-78
2024/01/27 14:13:54;;;;;;;11.90;2.88;;;;;;;;;;5116351;27;20043;-80
2024/01/27 14:16:20;;;;;;;9.57;2.40;;;;;;;;;;5130676;27;20054;-81
2024/01/27 14:18:46;;;;;;;11.77;2.45;;;;;;;;;;5115978;27;20043;-81
2024/01/27 14:21:12;;;;;;;8.88;2.70;;;;;;;;;;5118014;27;20051;-81
2024/01/27 14:23:39;;;;;;;7.88;2.13;;;;;;;;;;5118979;27;20043;-80
2024/01/27 14:26:07;;;;;;;9.55;2.53;;;;;;;;;;5134629;27;20039;-80